Albert Lea, Minnesota
Current Conditions -  °F | °C
As of 4:31 PM on Monday 22 Dec 2014 (Local Time) from KAEL Reporting Station
Drizzle Drizzle  
Wind Chill: 28°   Ceiling: 600
Heat Index: 36°   Visibility: 2mi
Dew Point: 36°   Wind: 10mph
Humidity: 100%   Direction: 110°ESE
Pressure: 29.53"   Gusts: NA
Location:  43.65°N, 93.37°W
Report Text: KAEL 222231Z AUTO 11009KT 2SM -DZ OVC006 02/02 A2953 RMK AO2
Loading
Personal Weather Stations






























Interactive Weather Map New forecast layout! Learn more

10-Day Weather Forecast

Advertisements
Track Severe Weather on mobile